Time;durP1;ratioP1;P1;durP2;ratioP2;P2;SDS_P1;SDS_P2;PMS_P1;PMS_P2;Temp;Humidity;BMP_temperature;BMP_pressure;BME280_temperature;BME280_humidity;BME280_pressure;Samples;Min_cycle;Max_cycle;Signal;HPM_P1;HPM_P2
2022/04/28 00:00:49;;;;;;;12.17;3.37;;;8.60;99.90;;;;;;6166499;23;20066;-92
2022/04/28 00:03:15;;;;;;;11.35;3.45;;;8.60;99.90;;;;;;6166334;23;20126;-94
2022/04/28 00:05:41;;;;;;;13.77;3.73;;;8.50;99.90;;;;;;6166457;23;20442;-91
2022/04/28 00:08:09;;;;;;;11.80;4.60;;;8.50;99.90;;;;;;6166346;23;20021;-92
2022/04/28 00:10:36;;;;;;;10.02;4.22;;;8.50;99.90;;;;;;6166554;23;20012;-91
2022/04/28 00:13:03;;;;;;;12.55;3.70;;;8.50;99.90;;;;;;6166590;23;20079;-92
2022/04/28 00:15:29;;;;;;;12.63;4.53;;;8.50;99.90;;;;;;6166300;23;20091;-92
2022/04/28 00:17:56;;;;;;;10.90;3.57;;;8.50;99.90;;;;;;6166293;23;20473;-92
2022/04/28 00:20:22;;;;;;;9.10;3.92;;;8.50;99.90;;;;;;6166499;23;20342;-92
2022/04/28 00:22:48;;;;;;;12.27;4.43;;;8.50;99.90;;;;;;6166580;23;20028;-92
2022/04/28 00:25:15;;;;;;;12.70;4.40;;;8.50;99.90;;;;;;6166463;23;20013;-90
2022/04/28 00:27:40;;;;;;;9.52;3.85;;;8.40;99.90;;;;;;6166386;23;20017;-91
2022/04/28 00:30:07;;;;;;;10.97;3.70;;;8.50;99.90;;;;;;6166633;23;20043;-92
2022/04/28 00:32:33;;;;;;;;;;;8.40;99.90;;;;;;6166863;23;20020;-92
2022/04/28 00:34:59;;;;;;;9.63;3.63;;;8.40;99.90;;;;;;6166264;23;19923;-91
2022/04/28 00:37:25;;;;;;;9.30;3.90;;;8.40;99.90;;;;;;6166202;23;20013;-92
2022/04/28 00:39:51;;;;;;;11.63;3.97;;;8.40;99.90;;;;;;6166169;23;20020;-91
2022/04/28 00:42:18;;;;;;;8.70;3.72;;;8.40;99.90;;;;;;6166096;23;20517;-92
2022/04/28 00:44:44;;;;;;;11.07;4.20;;;8.50;99.90;;;;;;6191010;23;20017;-93
2022/04/28 00:47:11;;;;;;;11.02;3.60;;;8.40;99.90;;;;;;6165975;23;20020;-92
2022/04/28 00:52:36;;;;;;;11.35;4.10;;;8.40;99.90;;;;;;6126284;23;20319;-91
2022/04/28 00:55:02;;;;;;;13.00;4.70;;;8.40;99.90;;;;;;6166023;23;20099;-91
2022/04/28 00:57:31;;;;;;;12.13;3.97;;;8.40;99.90;;;;;;6165799;23;20454;-90
2022/04/28 00:59:56;;;;;;;13.43;3.90;;;8.40;99.90;;;;;;6165941;23;20059;-91
2022/04/28 01:02:24;;;;;;;7.83;3.13;;;8.40;99.90;;;;;;6165309;23;20016;-91
2022/04/28 01:04:49;;;;;;;7.97;3.88;;;8.40;99.90;;;;;;6165603;23;20017;-90
2022/04/28 01:07:16;;;;;;;10.93;4.10;;;8.40;99.90;;;;;;6165620;23;20023;-90
2022/04/28 01:09:44;;;;;;;10.68;3.97;;;8.40;99.90;;;;;;6165788;23;20016;-90
2022/04/28 01:12:15;;;;;;;9.27;3.72;;;8.40;99.90;;;;;;6165718;23;20012;-92
2022/04/28 01:14:42;;;;;;;10.98;4.20;;;8.40;99.90;;;;;;6166004;23;20017;-92
2022/04/28 01:17:08;;;;;;;8.82;3.72;;;8.40;99.90;;;;;;6166032;23;20052;-92
2022/04/28 01:19:34;;;;;;;7.83;3.97;;;8.40;99.90;;;;;;6165752;23;20023;-92
2022/04/28 01:22:00;;;;;;;11.77;4.47;;;8.40;99.90;;;;;;6165957;23;20042;-92
2022/04/28 01:24:25;;;;;;;12.97;4.57;;;8.40;99.90;;;;;;6165575;23;20066;-92
2022/04/28 01:26:56;;;;;;;10.97;4.30;;;8.40;99.90;;;;;;6165623;23;20434;-92
2022/04/28 01:29:22;;;;;;;9.68;4.25;;;8.40;99.90;;;;;;6165738;23;20083;-93
2022/04/28 01:31:48;;;;;;;9.65;4.07;;;8.40;99.90;;;;;;6165735;23;20020;-94
2022/04/28 01:34:14;;;;;;;11.07;4.03;;;8.40;99.90;;;;;;6165581;23;20040;-92
2022/04/28 01:36:40;;;;;;;11.70;4.13;;;8.40;99.90;;;;;;6165580;23;20450;-92
2022/04/28 01:39:10;;;;;;;11.47;4.43;;;8.40;99.90;;;;;;6165523;23;20024;-92
2022/04/28 01:41:36;;;;;;;11.77;4.10;;;8.40;99.90;;;;;;6165668;23;20106;-95
2022/04/28 01:44:02;;;;;;;11.80;3.97;;;8.30;99.90;;;;;;6165218;23;20020;-94
2022/04/28 01:47:14;;;;;;;9.68;3.95;;;8.40;99.90;;;;;;6165202;23;20013;-93
2022/04/28 01:49:40;;;;;;;11.48;4.03;;;8.40;99.90;;;;;;6190406;23;20047;-93
2022/04/28 01:54:58;;;;;;;10.45;3.90;;;8.30;99.90;;;;;;6190318;23;20464;-92
2022/04/28 01:57:29;;;;;;;12.20;4.28;;;8.30;99.90;;;;;;6165813;23;20043;-92
2022/04/28 01:59:59;;;;;;;7.60;3.92;;;8.30;99.90;;;;;;6165888;23;20046;-91
2022/04/28 02:02:25;;;;;;;11.65;3.83;;;8.30;99.90;;;;;;6165550;23;20364;-91
2022/04/28 02:04:50;;;;;;;10.57;3.77;;;8.30;99.90;;;;;;6165487;23;20099;-93
2022/04/28 02:07:16;;;;;;;9.30;3.93;;;8.30;99.90;;;;;;6165487;23;20016;-93
2022/04/28 02:09:43;;;;;;;12.27;4.17;;;8.30;99.90;;;;;;6165545;23;20013;-92
2022/04/28 02:12:10;;;;;;;;;;;8.30;99.90;;;;;;6165714;23;20100;-92
2022/04/28 02:14:37;;;;;;;12.80;4.15;;;8.30;99.90;;;;;;6190085;23;19916;-92
2022/04/28 02:17:04;;;;;;;12.07;4.40;;;8.30;99.90;;;;;;6165564;23;20017;-92
2022/04/28 02:19:31;;;;;;;10.35;3.90;;;8.30;99.90;;;;;;6165506;23;20043;-91
2022/04/28 02:21:57;;;;;;;10.05;4.88;;;8.30;99.90;;;;;;6165404;23;20079;-93
2022/04/28 02:24:22;;;;;;;11.53;4.70;;;8.30;99.90;;;;;;6166231;23;20021;-93
2022/04/28 02:26:48;;;;;;;11.23;4.50;;;8.30;99.90;;;;;;6165962;23;20017;-91
2022/04/28 02:29:14;;;;;;;8.70;4.57;;;8.30;99.90;;;;;;6169644;23;20020;-91
2022/04/28 02:31:41;;;;;;;8.17;3.93;;;8.30;99.90;;;;;;6166728;23;20035;-92
2022/04/28 02:34:07;;;;;;;10.70;3.95;;;8.30;99.90;;;;;;6167646;23;20020;-93
2022/04/28 02:36:35;;;;;;;9.88;4.93;;;8.30;99.90;;;;;;6169704;23;20031;-91
2022/04/28 02:39:00;;;;;;;11.60;4.25;;;8.30;99.90;;;;;;6166569;23;20027;-94
2022/04/28 02:41:26;;;;;;;10.60;4.93;;;8.30;99.90;;;;;;6165315;23;20442;-92
2022/04/28 02:43:52;;;;;;;11.03;4.60;;;8.30;99.90;;;;;;6165030;23;20442;-92
2022/04/28 02:46:18;;;;;;;14.85;5.65;;;8.30;99.90;;;;;;6164920;23;20062;-92
2022/04/28 02:48:45;;;;;;;9.15;4.85;;;8.30;99.90;;;;;;6165146;23;20038;-91
2022/04/28 02:51:11;;;;;;;10.15;4.78;;;8.30;99.90;;;;;;6165089;23;20013;-96
2022/04/28 02:53:37;;;;;;;11.68;5.18;;;8.30;99.90;;;;;;6164913;23;20025;-93
2022/04/28 02:59:39;;;;;;;14.25;5.45;;;8.30;99.90;;;;;;6186858;23;20099;-93
2022/04/28 03:02:04;;;;;;;12.70;5.00;;;8.30;99.90;;;;;;6164796;23;20062;-93
2022/04/28 03:04:35;;;;;;;11.03;5.17;;;8.30;99.90;;;;;;6164922;23;20027;-91
2022/04/28 03:12:38;;;;;;;12.55;4.85;;;8.30;99.90;;;;;;6189491;23;20358;-91
2022/04/28 03:15:07;;;;;;;10.50;4.47;;;8.30;99.90;;;;;;6164961;23;20442;-91
2022/04/28 03:17:51;;;;;;;10.27;4.68;;;8.30;99.90;;;;;;6165006;23;20016;-92
2022/04/28 03:20:17;;;;;;;9.23;4.60;;;8.30;99.90;;;;;;6165090;23;20059;-92
2022/04/28 03:22:43;;;;;;;9.73;4.93;;;8.30;99.90;;;;;;6164934;23;20020;-94
2022/04/28 03:25:09;;;;;;;12.77;4.80;;;8.30;99.90;;;;;;6165305;23;20016;-92
2022/04/28 03:27:36;;;;;;;10.00;5.00;;;8.30;99.90;;;;;;6166914;23;20020;-93
2022/04/28 03:30:03;;;;;;;10.05;4.68;;;8.30;99.90;;;;;;6166896;23;20012;-92
2022/04/28 03:32:29;;;;;;;9.95;4.45;;;8.30;99.90;;;;;;6166559;23;20025;-92
2022/04/28 03:34:55;;;;;;;12.68;4.78;;;8.30;99.90;;;;;;6191716;23;20442;-92
2022/04/28 03:37:21;;;;;;;12.77;4.70;;;8.30;99.90;;;;;;6166574;23;20079;-93
2022/04/28 03:39:46;;;;;;;9.50;5.27;;;8.30;99.90;;;;;;6166758;23;20338;-92
2022/04/28 03:42:12;;;;;;;12.47;5.33;;;8.30;99.90;;;;;;6166785;23;20017;-92
2022/04/28 03:44:38;;;;;;;7.80;4.33;;;8.30;99.90;;;;;;6166714;23;20024;-94
2022/04/28 03:47:04;;;;;;;8.93;5.00;;;8.30;99.90;;;;;;6166646;23;20009;-93
2022/04/28 03:49:29;;;;;;;15.73;5.93;;;8.30;99.90;;;;;;6166650;23;20389;-92
2022/04/28 03:52:03;;;;;;;12.87;4.97;;;8.20;99.90;;;;;;6166433;23;20047;-91
2022/04/28 03:54:32;;;;;;;9.50;5.00;;;8.20;99.90;;;;;;6167129;23;20077;-92
2022/04/28 03:56:58;;;;;;;13.30;5.13;;;8.30;99.90;;;;;;6166379;23;20518;-92
2022/04/28 03:59:23;;;;;;;11.20;5.03;;;8.20;99.90;;;;;;6166748;23;20016;-93
2022/04/28 04:01:51;;;;;;;10.43;5.03;;;8.30;99.90;;;;;;6166652;23;20023;-95
2022/04/28 04:04:17;;;;;;;10.57;5.07;;;8.30;99.90;;;;;;6166332;23;20016;-94
2022/04/28 04:06:42;;;;;;;11.07;5.18;;;8.30;99.90;;;;;;6166473;23;20016;-93
2022/04/28 04:09:08;;;;;;;10.47;5.30;;;8.20;99.90;;;;;;6166689;23;20051;-93
2022/04/28 04:11:34;;;;;;;10.37;5.57;;;8.30;99.90;;;;;;6166243;23;20039;-94
2022/04/28 04:13:59;;;;;;;12.67;6.07;;;8.30;99.90;;;;;;6166439;23;20107;-91
2022/04/28 04:16:25;;;;;;;11.93;5.10;;;8.20;99.90;;;;;;6166352;23;20022;-92
2022/04/28 04:19:41;;;;;;;;;;;;;;;;;;;;;
2022/04/28 04:22:10;;;;;;;11.55;4.90;;;8.20;99.90;;;;;;6181272;23;20016;-93
2022/04/28 04:24:36;;;;;;;12.57;5.53;;;8.10;99.90;;;;;;6166140;23;20078;-93
2022/04/28 04:27:02;;;;;;;11.33;5.10;;;8.10;99.90;;;;;;6166109;23;20024;-93
2022/04/28 04:29:27;;;;;;;12.02;5.75;;;8.10;99.90;;;;;;6166250;23;20017;-93
2022/04/28 04:34:37;;;;;;;11.75;5.20;;;8.00;99.90;;;;;;6190952;23;20024;-92
2022/04/28 04:37:03;;;;;;;9.73;4.93;;;8.00;99.90;;;;;;6166303;23;20035;-91
2022/04/28 04:39:29;;;;;;;13.50;4.97;;;7.90;99.90;;;;;;6165859;23;20071;-91
2022/04/28 04:41:55;;;;;;;12.70;4.93;;;7.90;99.90;;;;;;6165946;23;20051;-91
2022/04/28 04:44:21;;;;;;;19.30;5.00;;;7.90;99.90;;;;;;6166288;23;20094;-91
2022/04/28 04:46:46;;;;;;;16.47;5.20;;;7.80;99.90;;;;;;6166534;23;20024;-91
2022/04/28 04:49:12;;;;;;;13.03;4.23;;;7.90;99.90;;;;;;6166422;23;20016;-92
2022/04/28 04:51:38;;;;;;;12.07;4.13;;;7.90;99.90;;;;;;6166507;23;20096;-92
2022/04/28 04:54:03;;;;;;;12.07;4.50;;;7.90;99.90;;;;;;6166725;23;20049;-91
2022/04/28 04:56:29;;;;;;;14.67;4.27;;;7.90;99.90;;;;;;6165954;23;20051;-91
2022/04/28 04:58:55;;;;;;;12.57;4.17;;;7.80;99.90;;;;;;6165763;23;20095;-92
2022/04/28 05:01:21;;;;;;;15.10;4.10;;;7.90;99.90;;;;;;6165767;23;20016;-91
2022/04/28 05:03:46;;;;;;;11.30;3.70;;;7.90;99.90;;;;;;6165858;23;20028;-92
2022/04/28 05:06:12;;;;;;;10.73;3.97;;;7.80;99.90;;;;;;6165938;23;20052;-93
2022/04/28 05:08:38;;;;;;;15.43;3.63;;;7.80;99.90;;;;;;6166351;23;20095;-91
2022/04/28 05:11:03;;;;;;;12.57;3.33;;;7.80;99.90;;;;;;6165631;23;20067;-90
2022/04/28 05:13:29;;;;;;;11.90;3.53;;;7.80;99.90;;;;;;6165821;23;20056;-90
2022/04/28 05:15:55;;;;;;;11.27;3.30;;;7.80;99.90;;;;;;6166052;23;20117;-91
2022/04/28 05:18:31;;;;;;;11.83;3.23;;;7.70;99.90;;;;;;6191018;23;20468;-93
2022/04/28 05:21:03;;;;;;;9.82;2.83;;;7.80;99.90;;;;;;6168993;23;20016;-91
2022/04/28 05:23:29;;;;;;;6.97;3.20;;;7.70;99.90;;;;;;6168706;23;20335;-91
2022/04/28 05:25:55;;;;;;;9.50;3.03;;;7.70;99.90;;;;;;6165900;23;20020;-91
2022/04/28 05:28:20;;;;;;;13.93;3.43;;;7.70;99.90;;;;;;6169436;23;20018;-91
2022/04/28 05:30:47;;;;;;;10.87;3.40;;;7.70;99.90;;;;;;6168865;23;20016;-90
2022/04/28 05:33:12;;;;;;;12.95;3.45;;;7.70;99.90;;;;;;6165226;23;20027;-90
2022/04/28 05:35:41;;;;;;;10.80;3.13;;;7.80;99.90;;;;;;6189812;23;20016;-92
2022/04/28 05:38:08;;;;;;;11.23;3.42;;;7.80;99.90;;;;;;6164887;23;20031;-91
2022/04/28 05:40:34;;;;;;;9.73;3.53;;;7.80;99.90;;;;;;6189472;23;20021;-88
2022/04/28 05:46:03;;;;;;;8.70;3.03;;;7.90;99.90;;;;;;6189776;23;20082;-91
2022/04/28 05:48:31;;;;;;;10.70;3.30;;;8.00;99.90;;;;;;6189193;23;20024;-89
2022/04/28 05:50:58;;;;;;;13.40;4.03;;;8.00;99.90;;;;;;6164660;23;20028;-89
2022/04/28 05:53:24;;;;;;;10.43;2.83;;;8.00;99.90;;;;;;6164823;23;20024;-91
2022/04/28 05:55:55;;;;;;;9.27;3.70;;;8.10;99.90;;;;;;6190100;23;20024;-89
2022/04/28 06:15:14;;;;;;;11.90;2.63;;;9.70;99.90;;;;;;6246005;22;20024;-93
2022/04/28 06:17:40;;;;;;;8.75;2.80;;;9.80;99.90;;;;;;6194247;23;20350;-89
2022/04/28 06:20:06;;;;;;;11.07;2.10;;;9.80;99.90;;;;;;6193509;23;20017;-91
2022/04/28 06:22:31;;;;;;;13.27;2.50;;;9.90;99.90;;;;;;6221050;23;20019;-92
2022/04/28 06:24:58;;;;;;;12.83;2.57;;;10.00;99.90;;;;;;6220643;23;20042;-92
2022/04/28 06:27:24;;;;;;;8.93;2.25;;;10.00;99.90;;;;;;6193552;23;20019;-92
2022/04/28 06:29:52;;;;;;;16.70;2.10;;;10.10;99.90;;;;;;6194483;23;20418;-95
2022/04/28 06:32:19;;;;;;;12.60;2.03;;;10.80;99.90;;;;;;6221907;23;20068;-92
2022/04/28 06:34:45;;;;;;;7.43;2.10;;;11.70;99.90;;;;;;6197039;23;20091;-93
2022/04/28 06:37:12;;;;;;;9.90;1.63;;;12.70;99.90;;;;;;6222502;23;20081;-89
2022/04/28 06:39:38;;;;;;;10.68;1.60;;;13.50;99.90;;;;;;6222534;23;20083;-94
2022/04/28 06:42:04;;;;;;;7.10;1.50;;;13.80;99.90;;;;;;6196311;23;20349;-90
2022/04/28 06:44:30;;;;;;;7.80;1.70;;;14.10;99.90;;;;;;6195189;23;20266;-90
2022/04/28 06:46:56;;;;;;;8.13;1.80;;;14.50;98.20;;;;;;6221059;23;20012;-92
2022/04/28 06:49:21;;;;;;;16.43;2.20;;;14.80;96.10;;;;;;6194887;23;20611;-93
2022/04/28 06:51:52;;;;;;;9.40;1.93;;;15.00;95.00;;;;;;6194569;23;20048;-93
2022/04/28 06:54:38;;;;;;;;;;;;;;;;;;;;;
2022/04/28 06:57:04;;;;;;;10.10;1.90;;;14.80;92.60;;;;;;6219818;23;20024;-95
2022/04/28 06:59:41;;;;;;;10.77;2.38;;;14.10;94.10;;;;;;6194807;23;20059;-91
2022/04/28 07:02:12;;;;;;;12.98;2.10;;;13.20;95.60;;;;;;6196289;23;20019;-92
2022/04/28 07:04:38;;;;;;;11.25;2.30;;;12.60;97.40;;;;;;6196817;23;20094;-91
2022/04/28 07:07:17;;;;;;;;;;;;;;;;;;;;;
2022/04/28 07:09:43;;;;;;;9.07;2.47;;;11.60;99.90;;;;;;6221616;23;20016;-92
2022/04/28 07:12:10;;;;;;;10.37;1.80;;;11.30;99.90;;;;;;6196564;23;20016;-91
2022/04/28 07:14:36;;;;;;;9.23;2.13;;;11.00;99.90;;;;;;6196962;23;20008;-93
2022/04/28 07:17:02;;;;;;;10.45;1.70;;;10.70;99.90;;;;;;6196744;23;20066;-92
2022/04/28 07:19:28;;;;;;;10.73;1.90;;;10.60;99.90;;;;;;6196826;23;20012;-91
2022/04/28 07:21:54;;;;;;;8.03;1.90;;;10.40;99.90;;;;;;6196800;23;20012;-92
2022/04/28 07:24:19;;;;;;;9.60;2.10;;;10.40;99.90;;;;;;6196383;23;20016;-89
2022/04/28 07:26:45;;;;;;;10.07;1.60;;;10.40;99.90;;;;;;6196370;23;20070;-92
2022/04/28 07:29:11;;;;;;;11.82;1.48;;;10.40;99.90;;;;;;6196744;23;20098;-92
2022/04/28 07:31:37;;;;;;;9.23;1.63;;;10.40;99.90;;;;;;6196084;23;20020;-91
2022/04/28 07:34:03;;;;;;;8.07;1.83;;;10.50;99.90;;;;;;6196421;23;20027;-90
2022/04/28 07:36:29;;;;;;;10.35;1.98;;;10.60;99.90;;;;;;6196424;23;20012;-91
2022/04/28 07:38:55;;;;;;;10.80;1.67;;;10.60;99.90;;;;;;6196199;23;20035;-94
2022/04/28 07:41:21;;;;;;;12.60;2.03;;;10.60;99.90;;;;;;6196014;23;20012;-90
2022/04/28 07:43:46;;;;;;;6.67;1.50;;;10.50;99.90;;;;;;6196293;23;20084;-89
2022/04/28 07:46:12;;;;;;;8.37;1.60;;;10.40;99.90;;;;;;6196211;23;20023;-90
2022/04/28 07:48:38;;;;;;;8.63;1.70;;;10.40;99.90;;;;;;6195888;23;20012;-90
2022/04/28 07:51:04;;;;;;;8.30;1.57;;;10.40;99.90;;;;;;6221562;23;20043;-89
2022/04/28 07:53:32;;;;;;;10.27;1.50;;;10.50;99.90;;;;;;6195917;23;20056;-91
2022/04/28 07:56:13;;;;;;;8.48;1.55;;;10.70;99.90;;;;;;6196329;23;20254;-93
2022/04/28 07:58:40;;;;;;;8.75;1.55;;;10.80;99.90;;;;;;6221349;23;20146;-91
2022/04/28 08:01:06;;;;;;;6.75;1.88;;;10.90;99.90;;;;;;6221060;23;20472;-90
2022/04/28 08:03:32;;;;;;;9.10;2.00;;;10.80;99.90;;;;;;6221132;23;20019;-92
2022/04/28 08:05:58;;;;;;;8.20;2.10;;;10.70;99.90;;;;;;6195968;23;20091;-89
2022/04/28 08:08:24;;;;;;;7.85;2.10;;;10.70;99.90;;;;;;6195718;23;20070;-91
2022/04/28 08:10:50;;;;;;;7.55;1.83;;;10.70;99.90;;;;;;6195762;23;20012;-89
2022/04/28 08:13:17;;;;;;;13.00;2.45;;;10.70;99.90;;;;;;6196134;23;20020;-92
2022/04/28 08:15:43;;;;;;;7.30;2.45;;;10.60;99.90;;;;;;6195951;23;20016;-88
2022/04/28 08:18:09;;;;;;;8.75;2.70;;;10.60;99.90;;;;;;6225466;23;20034;-89
2022/04/28 08:20:35;;;;;;;10.05;2.60;;;10.60;99.90;;;;;;6202731;23;20442;-90
2022/04/28 08:23:01;;;;;;;12.30;2.55;;;10.50;99.90;;;;;;6221865;23;20020;-92
2022/04/28 08:25:27;;;;;;;9.10;2.92;;;10.50;99.90;;;;;;6200300;23;20019;-90
2022/04/28 08:27:53;;;;;;;9.57;2.43;;;10.50;99.90;;;;;;6228238;23;20055;-88
2022/04/28 08:30:18;;;;;;;9.53;2.90;;;10.50;99.90;;;;;;6196271;23;20290;-92
2022/04/28 08:32:44;;;;;;;11.90;2.80;;;10.50;99.90;;;;;;6220658;23;20078;-91
2022/04/28 08:35:10;;;;;;;11.20;3.03;;;10.50;99.90;;;;;;6220739;23;20319;-90
2022/04/28 08:37:36;;;;;;;13.73;4.10;;;10.50;99.90;;;;;;6195460;23;20016;-92
2022/04/28 08:40:03;;;;;;;11.00;3.30;;;10.50;99.90;;;;;;6195539;23;20031;-91
2022/04/28 08:42:31;;;;;;;12.05;3.60;;;10.60;99.90;;;;;;6220177;23;20016;-90
2022/04/28 08:44:59;;;;;;;12.98;3.30;;;10.60;99.90;;;;;;6195096;23;20016;-91
2022/04/28 08:47:25;;;;;;;13.52;3.25;;;10.60;99.90;;;;;;6195407;23;20012;-90
2022/04/28 08:49:54;;;;;;;14.13;3.67;;;10.70;99.90;;;;;;6221647;23;20396;-92
2022/04/28 08:52:20;;;;;;;8.47;2.50;;;10.70;99.90;;;;;;6195661;23;20012;-92
2022/04/28 08:54:46;;;;;;;9.48;2.75;;;10.60;99.90;;;;;;6195701;23;20406;-92
2022/04/28 08:57:13;;;;;;;10.70;2.90;;;10.60;99.90;;;;;;6195454;23;20020;-91
2022/04/28 08:59:39;;;;;;;;;;;10.60;99.90;;;;;;6221076;23;20076;-89
2022/04/28 09:02:05;;;;;;;8.80;2.53;;;10.60;99.90;;;;;;6195123;23;19915;-91
2022/04/28 09:04:31;;;;;;;13.23;2.35;;;10.60;99.90;;;;;;6195037;23;20099;-88
2022/04/28 09:06:58;;;;;;;10.98;2.60;;;10.70;99.90;;;;;;6195199;23;20027;-90
2022/04/28 09:09:28;;;;;;;9.32;2.63;;;10.70;99.90;;;;;;6195179;23;20457;-94
2022/04/28 09:11:58;;;;;;;13.02;3.00;;;10.70;99.90;;;;;;6245425;23;20016;-95
2022/04/28 09:14:24;;;;;;;11.55;2.30;;;10.70;99.90;;;;;;6195103;23;20012;-90
2022/04/28 09:16:52;;;;;;;8.93;2.53;;;10.70;99.90;;;;;;6196095;23;20013;-92
2022/04/28 09:19:22;;;;;;;11.15;2.35;;;10.70;99.90;;;;;;6194860;23;20012;-90
2022/04/28 09:21:50;;;;;;;12.77;2.25;;;10.70;99.90;;;;;;6195180;23;20016;-92
2022/04/28 09:24:16;;;;;;;9.27;2.17;;;10.60;99.90;;;;;;6194592;23;20077;-91
2022/04/28 09:26:43;;;;;;;12.13;2.97;;;10.70;99.90;;;;;;6195474;23;20349;-90
2022/04/28 09:29:14;;;;;;;11.35;2.45;;;10.80;99.90;;;;;;6219047;23;20044;-92
2022/04/28 09:31:44;;;;;;;12.40;2.65;;;10.80;99.90;;;;;;6193880;23;20012;-94
2022/04/28 09:34:18;;;;;;;10.35;2.40;;;10.90;99.90;;;;;;6194405;23;20012;-92
2022/04/28 09:36:45;;;;;;;8.93;2.15;;;10.90;99.90;;;;;;6193853;23;20472;-91
2022/04/28 09:42:31;;;;;;;13.88;2.75;;;11.00;99.90;;;;;;6218434;23;20027;-89
2022/04/28 09:44:58;;;;;;;8.35;1.90;;;11.00;99.90;;;;;;6193275;23;20012;-89
2022/04/28 09:47:25;;;;;;;10.45;2.20;;;10.90;99.90;;;;;;6194046;23;20066;-89
2022/04/28 09:49:55;;;;;;;;;;;10.90;99.90;;;;;;6194058;23;20051;-93
2022/04/28 09:52:24;;;;;;;11.27;2.28;;;10.90;99.90;;;;;;6193734;23;19911;-90
2022/04/28 09:54:52;;;;;;;13.85;2.35;;;10.90;99.90;;;;;;6218770;23;20454;-90
2022/04/28 09:57:20;;;;;;;12.45;2.00;;;10.90;99.90;;;;;;6193816;23;20446;-90
2022/04/28 10:02:49;;;;;;;10.10;2.42;;;11.00;99.90;;;;;;6215261;23;20081;-90
2022/04/28 10:05:16;;;;;;;11.67;2.37;;;11.10;99.90;;;;;;6194366;23;20090;-89
2022/04/28 10:07:42;;;;;;;;;;;11.10;99.90;;;;;;6224137;23;20071;-89
2022/04/28 10:10:37;;;;;;;16.88;3.20;;;11.10;99.90;;;;;;6198504;23;19915;-93
2022/04/28 10:13:03;;;;;;;11.57;2.10;;;11.00;99.90;;;;;;6215753;23;20019;-92
2022/04/28 10:15:32;;;;;;;11.93;2.20;;;11.00;99.90;;;;;;6195328;23;20016;-90
2022/04/28 10:18:09;;;;;;;11.55;2.10;;;11.00;99.90;;;;;;6219643;23;20018;-93
2022/04/28 10:20:37;;;;;;;;;;;11.00;99.90;;;;;;6195597;23;20012;-94
2022/04/28 10:23:07;;;;;;;10.88;2.20;;;11.00;99.90;;;;;;6199053;23;19927;-91
2022/04/28 10:34:30;;;;;;;12.57;2.00;;;10.90;99.90;;;;;;6220109;23;20073;-91
2022/04/28 10:36:59;;;;;;;10.30;2.20;;;10.90;99.90;;;;;;6219873;23;20020;-87
2022/04/28 10:39:39;;;;;;;8.80;2.00;;;11.00;99.90;;;;;;6198141;23;20035;-89
2022/04/28 10:42:42;;;;;;;11.13;2.75;;;11.00;99.90;;;;;;6197852;23;20020;-92
2022/04/28 10:45:19;;;;;;;12.50;2.58;;;11.00;99.90;;;;;;6179605;23;20052;-88
2022/04/28 10:47:45;;;;;;;8.15;2.40;;;11.00;99.90;;;;;;6200276;23;20017;-93
2022/04/28 10:50:25;;;;;;;11.80;2.37;;;11.00;99.90;;;;;;6195387;23;20020;-93
2022/04/28 10:53:01;;;;;;;9.57;2.40;;;11.10;99.90;;;;;;6195878;23;20016;-91
2022/04/28 10:55:40;;;;;;;11.77;2.70;;;11.10;99.90;;;;;;6194978;23;20058;-94
2022/04/28 10:58:20;;;;;;;8.15;2.45;;;11.20;99.90;;;;;;6197896;23;20016;-89
2022/04/28 11:00:59;;;;;;;11.45;2.33;;;11.20;99.90;;;;;;6197900;23;20008;-88
2022/04/28 11:03:48;;;;;;;9.55;2.17;;;11.30;99.90;;;;;;6222249;23;20023;-89
2022/04/28 11:06:21;;;;;;;12.57;2.97;;;11.30;99.90;;;;;;6199416;23;20074;-92
2022/04/28 11:08:53;;;;;;;13.02;2.15;;;11.30;99.90;;;;;;6199617;23;20013;-95
2022/04/28 11:11:20;;;;;;;8.52;2.17;;;11.30;99.90;;;;;;6197336;23;20023;-93
2022/04/28 11:13:51;;;;;;;12.55;2.35;;;11.40;99.90;;;;;;6221429;23;20046;-92
2022/04/28 11:16:18;;;;;;;15.15;2.40;;;11.40;99.90;;;;;;6200852;23;20024;-89
2022/04/28 11:18:44;;;;;;;9.02;2.13;;;11.40;99.90;;;;;;6198141;23;20016;-89
2022/04/28 11:21:44;;;;;;;;;;;;;;;;;;;;;
2022/04/28 11:24:10;;;;;;;9.55;1.85;;;11.40;99.90;;;;;;6218988;23;20074;-92
2022/04/28 11:26:38;;;;;;;9.57;2.43;;;11.40;99.90;;;;;;6204400;23;20016;-89
2022/04/28 11:29:06;;;;;;;14.40;2.40;;;11.40;99.90;;;;;;6227647;23;20090;-90
2022/04/28 11:31:33;;;;;;;10.18;2.40;;;11.40;99.90;;;;;;6202364;23;20020;-89
2022/04/28 11:36:41;;;;;;;11.90;2.20;;;11.40;99.90;;;;;;6254000;22;19915;-88
2022/04/28 11:39:10;;;;;;;11.98;2.40;;;11.30;99.90;;;;;;6226729;23;20024;-91
2022/04/28 11:41:42;;;;;;;13.93;2.08;;;11.30;99.90;;;;;;6223078;23;20524;-91
2022/04/28 11:44:34;;;;;;;8.38;2.33;;;11.30;99.90;;;;;;6231336;23;20027;-96
2022/04/28 11:47:01;;;;;;;6.88;2.35;;;11.40;99.90;;;;;;6227380;23;20454;-92
2022/04/28 11:49:34;;;;;;;13.88;2.65;;;11.40;99.90;;;;;;6203585;23;20103;-95
2022/04/28 12:15:41;;;;;;;9.60;1.90;;;11.70;99.90;;;;;;6190904;23;20025;-90
2022/04/28 12:21:13;;;;;;;9.65;2.15;;;11.80;99.90;;;;;;6191335;23;20076;-91
2022/04/28 12:23:42;;;;;;;10.77;2.30;;;11.80;99.90;;;;;;6166549;23;20023;-92
2022/04/28 12:26:10;;;;;;;10.82;1.98;;;11.80;99.90;;;;;;6167069;23;20013;-94
2022/04/28 12:28:38;;;;;;;7.80;1.92;;;11.80;99.90;;;;;;6168210;23;20027;-93
2022/04/28 12:31:05;;;;;;;9.75;1.60;;;11.80;99.90;;;;;;6166752;23;20020;-92
2022/04/28 12:33:36;;;;;;;10.13;2.08;;;11.80;99.90;;;;;;6166228;23;20020;-90
2022/04/28 12:36:04;;;;;;;8.65;2.00;;;11.90;99.90;;;;;;6166163;23;20044;-91
2022/04/28 12:38:33;;;;;;;8.98;2.15;;;12.00;99.90;;;;;;6166060;23;20446;-92
2022/04/28 12:44:06;;;;;;;8.05;2.10;;;12.20;99.90;;;;;;6175136;23;20028;-92
2022/04/28 12:46:34;;;;;;;9.55;1.90;;;12.20;99.90;;;;;;6166047;23;20012;-91
2022/04/28 13:11:50;;;;;;;9.65;1.92;;;12.20;99.90;;;;;;6216903;23;20438;-93
2022/04/28 13:14:27;;;;;;;8.80;1.63;;;12.30;99.90;;;;;;6167446;23;20028;-92
2022/04/28 13:16:56;;;;;;;10.93;1.70;;;12.30;99.90;;;;;;6166872;23;20027;-92
2022/04/28 13:19:27;;;;;;;10.97;2.23;;;12.20;99.90;;;;;;6165550;23;20016;-93
2022/04/28 13:21:52;;;;;;;7.18;2.10;;;12.30;99.90;;;;;;6166129;23;20017;-94
2022/04/28 13:24:21;;;;;;;11.03;1.87;;;12.40;99.70;;;;;;6165474;23;20078;-92
2022/04/28 13:26:50;;;;;;;10.70;2.08;;;12.40;99.70;;;;;;6165683;23;20016;-92
2022/04/28 13:29:24;;;;;;;10.50;1.90;;;12.40;99.90;;;;;;6166208;23;20093;-92
2022/04/28 13:31:50;;;;;;;11.73;2.22;;;12.40;99.80;;;;;;6165547;23;20013;-94
2022/04/28 13:34:26;;;;;;;10.60;1.90;;;12.40;99.80;;;;;;6167970;23;20023;-94
2022/04/28 13:36:53;;;;;;;8.63;1.40;;;12.50;99.40;;;;;;6165633;23;20017;-91
2022/04/28 13:39:28;;;;;;;8.88;1.83;;;12.50;99.20;;;;;;6165667;23;20070;-92
2022/04/28 13:41:54;;;;;;;7.35;1.60;;;12.50;99.20;;;;;;6165721;23;20397;-92
2022/04/28 13:44:22;;;;;;;9.07;1.80;;;12.60;99.00;;;;;;6165421;23;20016;-93
2022/04/28 13:46:54;;;;;;;8.55;1.67;;;12.40;98.90;;;;;;6165878;23;20473;-92
2022/04/28 13:49:19;;;;;;;12.57;3.42;;;12.50;99.20;;;;;;6165663;23;20438;-96
2022/04/28 13:51:45;;;;;;;14.75;3.35;;;12.50;99.00;;;;;;6165924;23;20023;-95
2022/04/28 13:54:14;;;;;;;9.27;2.17;;;12.40;98.90;;;;;;6165134;23;20021;-91
2022/04/28 13:56:40;;;;;;;8.45;1.73;;;12.30;98.80;;;;;;6190164;23;20024;-93
2022/04/28 13:59:15;;;;;;;8.68;1.75;;;12.20;98.70;;;;;;6165548;23;20019;-93
2022/04/28 14:42:36;;;;;;;9.25;2.42;;;12.10;98.80;;;;;;6217197;23;20021;-92
2022/04/28 14:45:03;;;;;;;11.05;2.28;;;12.10;99.20;;;;;;6191231;23;20024;-92
2022/04/28 14:47:32;;;;;;;9.77;2.92;;;12.20;99.30;;;;;;6168990;23;20012;-91
2022/04/28 14:52:49;;;;;;;8.82;2.15;;;12.40;98.80;;;;;;6196641;23;20024;-93
2022/04/28 14:55:20;;;;;;;8.30;1.88;;;12.30;98.80;;;;;;6203663;23;20016;-89
2022/04/28 15:10:21;;;;;;;10.77;2.00;;;11.90;99.00;;;;;;6047094;23;20037;-95
2022/04/28 15:46:27;;;;;;;9.77;1.70;;;11.50;99.30;;;;;;6218659;23;20046;-92
2022/04/28 15:48:53;;;;;;;6.53;1.77;;;11.40;99.30;;;;;;6191686;23;20022;-92
2022/04/28 16:51:32;;;;;;;7.65;1.75;;;10.90;99.90;;;;;;6216150;23;20390;-89
2022/04/28 16:54:04;;;;;;;7.40;1.55;;;10.80;99.90;;;;;;6165211;23;20052;-93
2022/04/28 16:56:35;;;;;;;4.97;1.60;;;10.80;99.90;;;;;;6167211;23;20016;-91
2022/04/28 16:59:04;;;;;;;10.75;1.92;;;10.80;99.90;;;;;;6165633;23;20016;-90
2022/04/28 17:01:40;;;;;;;9.80;1.98;;;10.70;99.90;;;;;;6190396;23;20021;-89
2022/04/28 17:04:15;;;;;;;10.10;2.22;;;10.70;99.90;;;;;;6190362;23;20017;-87
2022/04/28 17:06:46;;;;;;;8.75;2.17;;;10.70;99.90;;;;;;6165708;23;20020;-88
2022/04/28 17:09:16;;;;;;;14.10;2.03;;;10.70;99.90;;;;;;6165459;23;20130;-89
2022/04/28 17:11:57;;;;;;;8.10;1.90;;;10.70;99.90;;;;;;6167306;23;20032;-90
2022/04/28 17:14:25;;;;;;;7.55;1.88;;;10.60;99.90;;;;;;6166436;23;20342;-89